sensor_id;sensor_type;location;lat;lon;timestamp;temperature;humidity
827;DHT22;395;48.132;11.608;2023-05-07T00:01:25;17.10;2.30
827;DHT22;395;48.132;11.608;2023-05-07T00:03:51;17.10;2.40
827;DHT22;395;48.132;11.608;2023-05-07T00:06:17;17.10;2.40
827;DHT22;395;48.132;11.608;2023-05-07T00:08:42;17.10;2.60
827;DHT22;395;48.132;11.608;2023-05-07T00:11:08;17.00;2.90
827;DHT22;395;48.132;11.608;2023-05-07T00:13:34;17.00;2.80
827;DHT22;395;48.132;11.608;2023-05-07T00:16:04;17.00;2.90
827;DHT22;395;48.132;11.608;2023-05-07T00:18:30;17.00;3.10
827;DHT22;395;48.132;11.608;2023-05-07T00:20:56;17.00;3.30
827;DHT22;395;48.132;11.608;2023-05-07T00:23:22;17.00;3.50
827;DHT22;395;48.132;11.608;2023-05-07T00:25:48;17.00;3.70
827;DHT22;395;48.132;11.608;2023-05-07T00:28:15;17.00;3.80
827;DHT22;395;48.132;11.608;2023-05-07T00:30:41;17.00;3.90
827;DHT22;395;48.132;11.608;2023-05-07T00:33:06;17.00;3.90
827;DHT22;395;48.132;11.608;2023-05-07T00:35:32;16.90;3.90
827;DHT22;395;48.132;11.608;2023-05-07T00:37:57;16.90;4.20
827;DHT22;395;48.132;11.608;2023-05-07T00:40:23;16.90;4.30
827;DHT22;395;48.132;11.608;2023-05-07T00:42:49;16.90;4.20
827;DHT22;395;48.132;11.608;2023-05-07T00:45:15;16.90;4.40
827;DHT22;395;48.132;11.608;2023-05-07T00:47:42;16.80;4.20
827;DHT22;395;48.132;11.608;2023-05-07T00:50:08;16.80;4.20
827;DHT22;395;48.132;11.608;2023-05-07T00:52:37;16.80;4.10
827;DHT22;395;48.132;11.608;2023-05-07T00:55:05;16.70;4.10
827;DHT22;395;48.132;11.608;2023-05-07T00:57:41;16.70;4.40
827;DHT22;395;48.132;11.608;2023-05-07T01:00:07;16.70;4.40
827;DHT22;395;48.132;11.608;2023-05-07T01:02:35;16.60;4.50
827;DHT22;395;48.132;11.608;2023-05-07T01:05:01;16.60;4.70
827;DHT22;395;48.132;11.608;2023-05-07T01:07:29;16.60;5.00
827;DHT22;395;48.132;11.608;2023-05-07T01:09:55;16.60;5.10
827;DHT22;395;48.132;11.608;2023-05-07T01:12:21;16.60;5.20
827;DHT22;395;48.132;11.608;2023-05-07T01:14:47;16.60;5.30
827;DHT22;395;48.132;11.608;2023-05-07T01:17:15;16.50;5.20
827;DHT22;395;48.132;11.608;2023-05-07T01:19:41;16.50;5.20
827;DHT22;395;48.132;11.608;2023-05-07T01:22:10;16.50;5.50
827;DHT22;395;48.132;11.608;2023-05-07T01:24:37;16.50;5.70
827;DHT22;395;48.132;11.608;2023-05-07T01:27:03;16.50;5.80
827;DHT22;395;48.132;11.608;2023-05-07T01:29:29;16.50;5.90
827;DHT22;395;48.132;11.608;2023-05-07T01:31:59;16.50;5.90
827;DHT22;395;48.132;11.608;2023-05-07T01:34:30;16.60;6.20
827;DHT22;395;48.132;11.608;2023-05-07T01:36:57;16.60;6.20
827;DHT22;395;48.132;11.608;2023-05-07T01:39:28;16.50;6.00
827;DHT22;395;48.132;11.608;2023-05-07T01:41:58;16.50;6.00
827;DHT22;395;48.132;11.608;2023-05-07T01:44:26;16.50;6.10
827;DHT22;395;48.132;11.608;2023-05-07T01:46:52;16.50;6.20
827;DHT22;395;48.132;11.608;2023-05-07T01:49:18;16.50;6.20
827;DHT22;395;48.132;11.608;2023-05-07T01:51:45;16.50;6.30
827;DHT22;395;48.132;11.608;2023-05-07T01:54:10;16.50;6.30
827;DHT22;395;48.132;11.608;2023-05-07T01:56:36;16.40;6.40
827;DHT22;395;48.132;11.608;2023-05-07T01:59:02;16.40;6.20
827;DHT22;395;48.132;11.608;2023-05-07T02:01:27;16.40;6.20
827;DHT22;395;48.132;11.608;2023-05-07T02:03:53;16.40;6.20
827;DHT22;395;48.132;11.608;2023-05-07T02:06:19;16.30;6.30
827;DHT22;395;48.132;11.608;2023-05-07T02:08:45;16.30;6.40
827;DHT22;395;48.132;11.608;2023-05-07T02:11:11;16.30;6.50
827;DHT22;395;48.132;11.608;2023-05-07T02:13:37;16.30;6.40
827;DHT22;395;48.132;11.608;2023-05-07T02:16:03;16.20;6.50
827;DHT22;395;48.132;11.608;2023-05-07T02:18:29;16.20;6.60
827;DHT22;395;48.132;11.608;2023-05-07T02:20:55;16.20;6.70
827;DHT22;395;48.132;11.608;2023-05-07T02:23:20;16.20;6.80
827;DHT22;395;48.132;11.608;2023-05-07T02:25:46;16.20;6.90
827;DHT22;395;48.132;11.608;2023-05-07T02:28:12;16.20;6.90
827;DHT22;395;48.132;11.608;2023-05-07T02:30:38;16.20;6.90
827;DHT22;395;48.132;11.608;2023-05-07T02:33:04;16.10;6.80
827;DHT22;395;48.132;11.608;2023-05-07T02:35:30;16.10;6.90
827;DHT22;395;48.132;11.608;2023-05-07T02:37:55;16.10;7.00
827;DHT22;395;48.132;11.608;2023-05-07T02:40:21;16.10;7.00
827;DHT22;395;48.132;11.608;2023-05-07T02:42:47;16.10;7.00
827;DHT22;395;48.132;11.608;2023-05-07T02:45:12;16.10;7.00
827;DHT22;395;48.132;11.608;2023-05-07T02:47:38;16.00;7.00
827;DHT22;395;48.132;11.608;2023-05-07T02:50:04;16.00;7.00
827;DHT22;395;48.132;11.608;2023-05-07T02:52:30;16.00;7.00
827;DHT22;395;48.132;11.608;2023-05-07T02:54:55;16.00;6.90
827;DHT22;395;48.132;11.608;2023-05-07T02:57:21;16.00;6.80
827;DHT22;395;48.132;11.608;2023-05-07T02:59:46;16.00;6.70
827;DHT22;395;48.132;11.608;2023-05-07T03:02:12;16.00;6.90
827;DHT22;395;48.132;11.608;2023-05-07T03:04:39;16.00;6.90
827;DHT22;395;48.132;11.608;2023-05-07T03:07:05;16.00;6.90
827;DHT22;395;48.132;11.608;2023-05-07T03:09:30;15.90;6.80
827;DHT22;395;48.132;11.608;2023-05-07T03:11:56;15.90;6.90
827;DHT22;395;48.132;11.608;2023-05-07T03:14:22;15.90;7.10
827;DHT22;395;48.132;11.608;2023-05-07T03:16:49;15.90;7.20
827;DHT22;395;48.132;11.608;2023-05-07T03:19:15;15.90;7.10
827;DHT22;395;48.132;11.608;2023-05-07T03:21:40;15.90;7.00
827;DHT22;395;48.132;11.608;2023-05-07T03:24:06;15.90;7.10
827;DHT22;395;48.132;11.608;2023-05-07T03:26:31;15.90;7.30
827;DHT22;395;48.132;11.608;2023-05-07T03:28:57;15.90;7.30
827;DHT22;395;48.132;11.608;2023-05-07T03:31:23;15.90;7.20
827;DHT22;395;48.132;11.608;2023-05-07T03:33:56;15.90;7.20
827;DHT22;395;48.132;11.608;2023-05-07T03:36:23;15.90;7.10
827;DHT22;395;48.132;11.608;2023-05-07T03:38:49;15.90;7.30
827;DHT22;395;48.132;11.608;2023-05-07T03:41:15;15.90;7.20
827;DHT22;395;48.132;11.608;2023-05-07T03:43:41;15.90;7.20
827;DHT22;395;48.132;11.608;2023-05-07T03:46:07;16.00;7.50
827;DHT22;395;48.132;11.608;2023-05-07T03:48:32;15.90;7.60
827;DHT22;395;48.132;11.608;2023-05-07T03:50:59;15.80;7.40
827;DHT22;395;48.132;11.608;2023-05-07T03:53:24;15.80;7.40
827;DHT22;395;48.132;11.608;2023-05-07T03:55:50;15.80;7.50
827;DHT22;395;48.132;11.608;2023-05-07T03:58:16;15.80;7.40
827;DHT22;395;48.132;11.608;2023-05-07T04:00:42;15.80;7.40
827;DHT22;395;48.132;11.608;2023-05-07T04:03:08;15.80;7.30
827;DHT22;395;48.132;11.608;2023-05-07T04:05:33;15.80;7.20
827;DHT22;395;48.132;11.608;2023-05-07T04:07:59;15.80;7.50
827;DHT22;395;48.132;11.608;2023-05-07T04:10:25;15.80;7.50
827;DHT22;395;48.132;11.608;2023-05-07T04:12:51;15.80;7.50
827;DHT22;395;48.132;11.608;2023-05-07T04:15:17;15.80;7.50
827;DHT22;395;48.132;11.608;2023-05-07T04:17:43;15.80;7.50
827;DHT22;395;48.132;11.608;2023-05-07T04:20:15;15.80;7.50
827;DHT22;395;48.132;11.608;2023-05-07T04:22:41;15.70;7.40
827;DHT22;395;48.132;11.608;2023-05-07T04:25:07;15.70;7.40
827;DHT22;395;48.132;11.608;2023-05-07T04:27:34;15.70;7.40
827;DHT22;395;48.132;11.608;2023-05-07T04:30:01;15.80;7.50
827;DHT22;395;48.132;11.608;2023-05-07T04:32:28;15.80;7.50
827;DHT22;395;48.132;11.608;2023-05-07T04:34:55;15.80;7.50
827;DHT22;395;48.132;11.608;2023-05-07T04:37:21;15.80;7.50
827;DHT22;395;48.132;11.608;2023-05-07T04:39:46;15.80;7.50
827;DHT22;395;48.132;11.608;2023-05-07T04:42:16;15.80;7.50
827;DHT22;395;48.132;11.608;2023-05-07T04:44:44;15.80;7.50
827;DHT22;395;48.132;11.608;2023-05-07T04:47:09;15.80;7.50
827;DHT22;395;48.132;11.608;2023-05-07T04:49:36;15.80;7.50
827;DHT22;395;48.132;11.608;2023-05-07T04:52:02;15.80;7.50
827;DHT22;395;48.132;11.608;2023-05-07T04:54:29;15.80;7.50
827;DHT22;395;48.132;11.608;2023-05-07T04:56:55;15.90;8.00
827;DHT22;395;48.132;11.608;2023-05-07T04:59:20;15.90;8.20
827;DHT22;395;48.132;11.608;2023-05-07T05:01:46;16.00;8.30
827;DHT22;395;48.132;11.608;2023-05-07T05:04:12;16.00;7.60
827;DHT22;395;48.132;11.608;2023-05-07T05:06:38;16.00;7.60
827;DHT22;395;48.132;11.608;2023-05-07T05:09:04;16.00;7.60
827;DHT22;395;48.132;11.608;2023-05-07T05:11:30;16.00;7.60
827;DHT22;395;48.132;11.608;2023-05-07T05:13:56;16.00;7.50
827;DHT22;395;48.132;11.608;2023-05-07T05:16:22;16.00;7.40
827;DHT22;395;48.132;11.608;2023-05-07T05:18:48;16.00;7.30
827;DHT22;395;48.132;11.608;2023-05-07T05:21:13;16.00;7.20
827;DHT22;395;48.132;11.608;2023-05-07T05:23:39;16.00;7.10
827;DHT22;395;48.132;11.608;2023-05-07T05:26:04;16.00;7.20
827;DHT22;395;48.132;11.608;2023-05-07T05:28:30;16.00;7.10
827;DHT22;395;48.132;11.608;2023-05-07T05:30:56;16.10;7.20
827;DHT22;395;48.132;11.608;2023-05-07T05:33:21;16.10;7.20
827;DHT22;395;48.132;11.608;2023-05-07T05:35:47;16.10;7.20
827;DHT22;395;48.132;11.608;2023-05-07T05:38:13;16.10;7.30
827;DHT22;395;48.132;11.608;2023-05-07T05:40:39;16.10;7.50
827;DHT22;395;48.132;11.608;2023-05-07T05:43:05;16.10;7.70
827;DHT22;395;48.132;11.608;2023-05-07T05:45:31;16.20;7.80
827;DHT22;395;48.132;11.608;2023-05-07T05:47:57;16.20;7.50
827;DHT22;395;48.132;11.608;2023-05-07T05:50:23;16.20;7.50
827;DHT22;395;48.132;11.608;2023-05-07T05:52:48;16.30;7.50
827;DHT22;395;48.132;11.608;2023-05-07T05:55:14;16.30;7.40
827;DHT22;395;48.132;11.608;2023-05-07T05:57:40;16.30;7.60
827;DHT22;395;48.132;11.608;2023-05-07T06:00:07;16.30;7.40
827;DHT22;395;48.132;11.608;2023-05-07T06:02:33;16.40;7.70
827;DHT22;395;48.132;11.608;2023-05-07T06:04:59;16.40;7.90
827;DHT22;395;48.132;11.608;2023-05-07T06:07:25;16.40;7.90
827;DHT22;395;48.132;11.608;2023-05-07T06:09:50;16.50;8.00
827;DHT22;395;48.132;11.608;2023-05-07T06:12:16;16.50;7.90
827;DHT22;395;48.132;11.608;2023-05-07T06:14:45;16.50;7.60
827;DHT22;395;48.132;11.608;2023-05-07T06:17:10;16.60;7.90
827;DHT22;395;48.132;11.608;2023-05-07T06:19:36;16.60;8.00
827;DHT22;395;48.132;11.608;2023-05-07T06:22:01;16.70;8.10
827;DHT22;395;48.132;11.608;2023-05-07T06:24:28;16.70;8.10
827;DHT22;395;48.132;11.608;2023-05-07T06:26:54;16.70;8.10
827;DHT22;395;48.132;11.608;2023-05-07T06:29:20;16.80;8.20
827;DHT22;395;48.132;11.608;2023-05-07T06:31:46;16.80;8.20
827;DHT22;395;48.132;11.608;2023-05-07T06:34:11;16.90;8.30
827;DHT22;395;48.132;11.608;2023-05-07T06:36:40;17.00;9.50
827;DHT22;395;48.132;11.608;2023-05-07T06:39:06;17.00;8.90
827;DHT22;395;48.132;11.608;2023-05-07T06:41:32;17.10;8.40
827;DHT22;395;48.132;11.608;2023-05-07T06:43:57;17.10;8.40
827;DHT22;395;48.132;11.608;2023-05-07T06:46:23;17.10;8.40
827;DHT22;395;48.132;11.608;2023-05-07T06:48:49;17.20;8.50
827;DHT22;395;48.132;11.608;2023-05-07T06:51:14;17.20;8.50
827;DHT22;395;48.132;11.608;2023-05-07T06:53:40;17.30;8.50
827;DHT22;395;48.132;11.608;2023-05-07T06:56:06;17.30;8.50
827;DHT22;395;48.132;11.608;2023-05-07T06:58:32;17.40;8.60
827;DHT22;395;48.132;11.608;2023-05-07T07:00:57;17.40;8.60
827;DHT22;395;48.132;11.608;2023-05-07T07:03:23;17.50;8.70
827;DHT22;395;48.132;11.608;2023-05-07T07:05:52;17.50;8.70
827;DHT22;395;48.132;11.608;2023-05-07T07:08:18;17.60;8.70
827;DHT22;395;48.132;11.608;2023-05-07T07:10:44;17.60;8.70
827;DHT22;395;48.132;11.608;2023-05-07T07:13:09;17.70;8.80
827;DHT22;395;48.132;11.608;2023-05-07T07:15:35;17.70;9.20
827;DHT22;395;48.132;11.608;2023-05-07T07:18:00;17.80;9.50
827;DHT22;395;48.132;11.608;2023-05-07T07:20:26;17.80;10.10
827;DHT22;395;48.132;11.608;2023-05-07T07:22:51;17.90;9.50
827;DHT22;395;48.132;11.608;2023-05-07T07:25:17;17.90;10.00
827;DHT22;395;48.132;11.608;2023-05-07T07:27:43;17.90;9.90
827;DHT22;395;48.132;11.608;2023-05-07T07:30:09;18.00;9.00
827;DHT22;395;48.132;11.608;2023-05-07T07:32:35;18.00;8.40
827;DHT22;395;48.132;11.608;2023-05-07T07:35:01;18.00;7.80
827;DHT22;395;48.132;11.608;2023-05-07T07:37:27;18.10;7.60
827;DHT22;395;48.132;11.608;2023-05-07T07:39:52;18.10;7.70
827;DHT22;395;48.132;11.608;2023-05-07T07:42:18;18.10;7.70
827;DHT22;395;48.132;11.608;2023-05-07T07:44:44;18.20;7.40
827;DHT22;395;48.132;11.608;2023-05-07T07:47:10;18.20;7.40
827;DHT22;395;48.132;11.608;2023-05-07T07:49:35;18.20;7.00
827;DHT22;395;48.132;11.608;2023-05-07T07:52:01;18.20;6.70
827;DHT22;395;48.132;11.608;2023-05-07T07:54:27;18.20;6.60
827;DHT22;395;48.132;11.608;2023-05-07T07:56:52;18.30;6.70
827;DHT22;395;48.132;11.608;2023-05-07T07:59:18;18.30;6.50
827;DHT22;395;48.132;11.608;2023-05-07T08:01:44;18.30;6.50
827;DHT22;395;48.132;11.608;2023-05-07T08:04:10;18.30;5.80
827;DHT22;395;48.132;11.608;2023-05-07T08:06:36;18.30;5.90
827;DHT22;395;48.132;11.608;2023-05-07T08:09:02;18.30;6.10
827;DHT22;395;48.132;11.608;2023-05-07T08:11:28;18.40;6.40
827;DHT22;395;48.132;11.608;2023-05-07T08:13:54;18.40;6.20
827;DHT22;395;48.132;11.608;2023-05-07T08:16:20;18.40;5.80
827;DHT22;395;48.132;11.608;2023-05-07T08:18:46;18.50;5.70
827;DHT22;395;48.132;11.608;2023-05-07T08:21:12;18.50;5.40
827;DHT22;395;48.132;11.608;2023-05-07T08:23:37;18.50;4.60
827;DHT22;395;48.132;11.608;2023-05-07T08:26:03;18.50;4.00
827;DHT22;395;48.132;11.608;2023-05-07T08:28:29;18.50;2.90
827;DHT22;395;48.132;11.608;2023-05-07T08:30:55;18.60;3.10
827;DHT22;395;48.132;11.608;2023-05-07T08:33:22;18.60;2.70
827;DHT22;395;48.132;11.608;2023-05-07T08:35:47;18.60;2.50
827;DHT22;395;48.132;11.608;2023-05-07T08:38:13;18.70;2.20
827;DHT22;395;48.132;11.608;2023-05-07T08:40:39;18.70;1.80
827;DHT22;395;48.132;11.608;2023-05-07T08:43:06;18.70;2.20
827;DHT22;395;48.132;11.608;2023-05-07T08:45:38;18.80;2.30
827;DHT22;395;48.132;11.608;2023-05-07T08:48:09;18.80;2.20
827;DHT22;395;48.132;11.608;2023-05-07T08:50:38;18.80;2.20
827;DHT22;395;48.132;11.608;2023-05-07T08:53:04;18.80;2.70
827;DHT22;395;48.132;11.608;2023-05-07T08:55:30;18.80;2.80
827;DHT22;395;48.132;11.608;2023-05-07T08:57:56;18.90;2.70
827;DHT22;395;48.132;11.608;2023-05-07T09:00:22;18.80;2.40
827;DHT22;395;48.132;11.608;2023-05-07T09:02:47;18.90;3.00
827;DHT22;395;48.132;11.608;2023-05-07T09:05:13;18.90;3.00
827;DHT22;395;48.132;11.608;2023-05-07T09:07:39;19.00;2.80
827;DHT22;395;48.132;11.608;2023-05-07T09:10:05;19.00;2.00
827;DHT22;395;48.132;11.608;2023-05-07T09:12:31;19.00;2.00
827;DHT22;395;48.132;11.608;2023-05-07T09:14:58;19.00;1.00
827;DHT22;395;48.132;11.608;2023-05-07T09:17:24;19.00;1.00
827;DHT22;395;48.132;11.608;2023-05-07T09:19:50;19.10;1.00
827;DHT22;395;48.132;11.608;2023-05-07T09:22:16;19.10;1.00
827;DHT22;395;48.132;11.608;2023-05-07T09:24:50;19.10;1.00
827;DHT22;395;48.132;11.608;2023-05-07T09:27:17;19.10;1.00
827;DHT22;395;48.132;11.608;2023-05-07T09:29:44;19.10;1.00
827;DHT22;395;48.132;11.608;2023-05-07T09:32:10;19.20;1.10
827;DHT22;395;48.132;11.608;2023-05-07T09:34:36;19.20;1.00
827;DHT22;395;48.132;11.608;2023-05-07T09:37:02;19.20;1.00
827;DHT22;395;48.132;11.608;2023-05-07T09:39:42;19.20;1.00
827;DHT22;395;48.132;11.608;2023-05-07T09:42:08;19.20;1.00
827;DHT22;395;48.132;11.608;2023-05-07T09:44:34;19.20;1.00
827;DHT22;395;48.132;11.608;2023-05-07T09:47:00;19.20;1.00
827;DHT22;395;48.132;11.608;2023-05-07T09:49:29;19.30;1.00
827;DHT22;395;48.132;11.608;2023-05-07T09:51:55;19.30;1.00
827;DHT22;395;48.132;11.608;2023-05-07T09:54:22;19.40;1.00
827;DHT22;395;48.132;11.608;2023-05-07T09:56:48;19.40;1.00
827;DHT22;395;48.132;11.608;2023-05-07T09:59:15;19.50;1.00
827;DHT22;395;48.132;11.608;2023-05-07T10:01:42;19.40;1.00
827;DHT22;395;48.132;11.608;2023-05-07T10:04:10;19.50;1.00
827;DHT22;395;48.132;11.608;2023-05-07T10:06:36;19.60;1.00
827;DHT22;395;48.132;11.608;2023-05-07T10:09:04;19.70;1.00
827;DHT22;395;48.132;11.608;2023-05-07T10:11:34;19.60;1.00
827;DHT22;395;48.132;11.608;2023-05-07T10:14:01;19.50;1.00
827;DHT22;395;48.132;11.608;2023-05-07T10:16:32;19.60;1.00
827;DHT22;395;48.132;11.608;2023-05-07T10:18:59;19.70;1.00
827;DHT22;395;48.132;11.608;2023-05-07T10:21:27;19.70;1.00
827;DHT22;395;48.132;11.608;2023-05-07T10:24:04;19.70;1.00
827;DHT22;395;48.132;11.608;2023-05-07T10:26:36;19.70;1.00
827;DHT22;395;48.132;11.608;2023-05-07T10:29:25;19.80;1.00
827;DHT22;395;48.132;11.608;2023-05-07T10:34:29;19.80;1.00
827;DHT22;395;48.132;11.608;2023-05-07T10:36:58;19.90;1.00
827;DHT22;395;48.132;11.608;2023-05-07T10:39:24;19.90;1.00
827;DHT22;395;48.132;11.608;2023-05-07T10:41:50;19.90;1.00
827;DHT22;395;48.132;11.608;2023-05-07T10:44:29;19.90;1.00
827;DHT22;395;48.132;11.608;2023-05-07T10:47:24;19.90;1.00
827;DHT22;395;48.132;11.608;2023-05-07T10:52:20;19.90;1.00
827;DHT22;395;48.132;11.608;2023-05-07T10:54:46;19.90;1.00
827;DHT22;395;48.132;11.608;2023-05-07T10:59:56;20.00;1.00
827;DHT22;395;48.132;11.608;2023-05-07T11:02:22;20.00;1.00
827;DHT22;395;48.132;11.608;2023-05-07T11:05:23;20.00;1.00
827;DHT22;395;48.132;11.608;2023-05-07T11:07:56;20.00;1.00
827;DHT22;395;48.132;11.608;2023-05-07T11:10:22;20.00;1.00
827;DHT22;395;48.132;11.608;2023-05-07T11:12:48;20.10;1.00
827;DHT22;395;48.132;11.608;2023-05-07T11:15:14;20.10;1.00
827;DHT22;395;48.132;11.608;2023-05-07T11:17:57;20.20;1.00
827;DHT22;395;48.132;11.608;2023-05-07T11:26:06;20.10;1.00
827;DHT22;395;48.132;11.608;2023-05-07T11:28:40;20.20;1.00
827;DHT22;395;48.132;11.608;2023-05-07T11:31:06;20.30;1.00
827;DHT22;395;48.132;11.608;2023-05-07T11:33:33;20.40;1.00
827;DHT22;395;48.132;11.608;2023-05-07T11:36:03;20.40;1.00
827;DHT22;395;48.132;11.608;2023-05-07T11:38:35;20.40;1.00
827;DHT22;395;48.132;11.608;2023-05-07T11:41:01;20.50;1.00
827;DHT22;395;48.132;11.608;2023-05-07T11:43:28;20.60;1.00
827;DHT22;395;48.132;11.608;2023-05-07T11:45:53;20.60;1.00
827;DHT22;395;48.132;11.608;2023-05-07T11:48:21;20.60;1.00
827;DHT22;395;48.132;11.608;2023-05-07T11:51:00;20.60;1.00
827;DHT22;395;48.132;11.608;2023-05-07T11:53:27;20.70;1.00
827;DHT22;395;48.132;11.608;2023-05-07T11:55:56;20.70;1.00
827;DHT22;395;48.132;11.608;2023-05-07T11:58:23;20.60;1.00
827;DHT22;395;48.132;11.608;2023-05-07T12:00:52;20.70;1.00
827;DHT22;395;48.132;11.608;2023-05-07T12:03:19;20.70;1.00
827;DHT22;395;48.132;11.608;2023-05-07T12:05:48;20.70;1.00
827;DHT22;395;48.132;11.608;2023-05-07T12:08:22;20.80;1.00
827;DHT22;395;48.132;11.608;2023-05-07T12:10:51;20.90;1.00
827;DHT22;395;48.132;11.608;2023-05-07T12:13:21;20.90;1.00
827;DHT22;395;48.132;11.608;2023-05-07T12:15:53;20.90;1.00
827;DHT22;395;48.132;11.608;2023-05-07T12:18:20;20.90;1.00
827;DHT22;395;48.132;11.608;2023-05-07T12:20:46;21.00;1.00
827;DHT22;395;48.132;11.608;2023-05-07T12:23:12;21.00;1.00
827;DHT22;395;48.132;11.608;2023-05-07T12:25:39;21.10;1.00
827;DHT22;395;48.132;11.608;2023-05-07T12:28:05;21.10;1.00
827;DHT22;395;48.132;11.608;2023-05-07T12:30:38;21.20;1.00
827;DHT22;395;48.132;11.608;2023-05-07T12:33:04;21.20;1.00
827;DHT22;395;48.132;11.608;2023-05-07T12:35:31;21.20;1.00
827;DHT22;395;48.132;11.608;2023-05-07T12:38:00;21.20;1.00
827;DHT22;395;48.132;11.608;2023-05-07T12:43:02;21.30;1.00
827;DHT22;395;48.132;11.608;2023-05-07T12:45:27;21.30;1.00
827;DHT22;395;48.132;11.608;2023-05-07T12:47:53;21.30;1.00
827;DHT22;395;48.132;11.608;2023-05-07T12:50:19;21.30;1.00
827;DHT22;395;48.132;11.608;2023-05-07T12:52:47;21.30;1.00
827;DHT22;395;48.132;11.608;2023-05-07T12:55:16;21.40;1.00
827;DHT22;395;48.132;11.608;2023-05-07T12:57:45;21.30;1.00
827;DHT22;395;48.132;11.608;2023-05-07T13:00:13;21.30;1.00
827;DHT22;395;48.132;11.608;2023-05-07T13:02:41;21.40;1.00
827;DHT22;395;48.132;11.608;2023-05-07T13:05:07;21.40;1.00
827;DHT22;395;48.132;11.608;2023-05-07T13:07:33;21.50;1.00
827;DHT22;395;48.132;11.608;2023-05-07T13:09:59;21.60;1.00
827;DHT22;395;48.132;11.608;2023-05-07T13:12:25;21.60;1.00
827;DHT22;395;48.132;11.608;2023-05-07T13:14:50;21.60;1.00
827;DHT22;395;48.132;11.608;2023-05-07T13:17:16;21.50;1.00
827;DHT22;395;48.132;11.608;2023-05-07T13:19:41;21.40;1.00
827;DHT22;395;48.132;11.608;2023-05-07T13:22:07;21.60;1.00
827;DHT22;395;48.132;11.608;2023-05-07T13:24:33;21.60;1.00
827;DHT22;395;48.132;11.608;2023-05-07T13:26:58;21.70;1.00
827;DHT22;395;48.132;11.608;2023-05-07T13:29:24;21.80;1.00
827;DHT22;395;48.132;11.608;2023-05-07T13:31:54;21.80;1.00
827;DHT22;395;48.132;11.608;2023-05-07T13:34:20;21.90;1.00
827;DHT22;395;48.132;11.608;2023-05-07T13:36:46;21.90;1.00
827;DHT22;395;48.132;11.608;2023-05-07T13:39:11;22.00;1.00
827;DHT22;395;48.132;11.608;2023-05-07T13:41:37;21.90;1.00
827;DHT22;395;48.132;11.608;2023-05-07T13:44:03;21.90;1.00
827;DHT22;395;48.132;11.608;2023-05-07T13:46:28;21.90;1.00
827;DHT22;395;48.132;11.608;2023-05-07T13:48:55;21.80;1.00
827;DHT22;395;48.132;11.608;2023-05-07T13:51:21;21.90;1.00
827;DHT22;395;48.132;11.608;2023-05-07T13:53:47;21.80;1.00
827;DHT22;395;48.132;11.608;2023-05-07T13:56:13;22.00;1.00
827;DHT22;395;48.132;11.608;2023-05-07T13:58:39;22.10;1.00
827;DHT22;395;48.132;11.608;2023-05-07T14:01:05;22.10;1.00
827;DHT22;395;48.132;11.608;2023-05-07T14:03:30;22.20;1.00
827;DHT22;395;48.132;11.608;2023-05-07T14:05:58;22.30;1.00
827;DHT22;395;48.132;11.608;2023-05-07T14:08:25;22.40;1.00
827;DHT22;395;48.132;11.608;2023-05-07T14:10:51;22.30;1.00
827;DHT22;395;48.132;11.608;2023-05-07T14:13:17;22.20;1.00
827;DHT22;395;48.132;11.608;2023-05-07T14:15:43;22.30;1.00
827;DHT22;395;48.132;11.608;2023-05-07T14:18:13;22.40;1.00
827;DHT22;395;48.132;11.608;2023-05-07T14:20:39;22.30;1.00
827;DHT22;395;48.132;11.608;2023-05-07T14:23:05;22.40;1.00
827;DHT22;395;48.132;11.608;2023-05-07T14:25:30;22.30;1.00
827;DHT22;395;48.132;11.608;2023-05-07T14:27:56;22.30;1.00
827;DHT22;395;48.132;11.608;2023-05-07T14:30:22;22.30;1.00
827;DHT22;395;48.132;11.608;2023-05-07T14:32:50;22.40;1.00
827;DHT22;395;48.132;11.608;2023-05-07T14:35:17;22.40;1.00
827;DHT22;395;48.132;11.608;2023-05-07T14:37:43;22.40;1.00
827;DHT22;395;48.132;11.608;2023-05-07T14:40:09;22.50;1.00
827;DHT22;395;48.132;11.608;2023-05-07T14:42:35;22.40;1.00
827;DHT22;395;48.132;11.608;2023-05-07T14:45:01;22.40;1.00
827;DHT22;395;48.132;11.608;2023-05-07T14:47:26;22.40;1.00
827;DHT22;395;48.132;11.608;2023-05-07T14:49:52;22.40;1.00
827;DHT22;395;48.132;11.608;2023-05-07T14:52:18;22.30;1.00
827;DHT22;395;48.132;11.608;2023-05-07T14:54:44;22.30;1.00
827;DHT22;395;48.132;11.608;2023-05-07T14:57:10;22.30;1.00
827;DHT22;395;48.132;11.608;2023-05-07T14:59:39;22.30;1.00
827;DHT22;395;48.132;11.608;2023-05-07T15:02:05;22.30;1.00
827;DHT22;395;48.132;11.608;2023-05-07T15:04:33;22.40;1.00
827;DHT22;395;48.132;11.608;2023-05-07T15:06:59;22.40;1.00
827;DHT22;395;48.132;11.608;2023-05-07T15:09:25;22.30;1.00
827;DHT22;395;48.132;11.608;2023-05-07T15:11:51;22.30;1.00
827;DHT22;395;48.132;11.608;2023-05-07T15:14:17;22.30;1.00
827;DHT22;395;48.132;11.608;2023-05-07T15:16:43;22.20;1.00
827;DHT22;395;48.132;11.608;2023-05-07T15:19:08;22.00;1.00
827;DHT22;395;48.132;11.608;2023-05-07T15:21:34;22.10;1.00
827;DHT22;395;48.132;11.608;2023-05-07T15:24:02;22.10;1.00
827;DHT22;395;48.132;11.608;2023-05-07T15:26:27;22.10;1.00
827;DHT22;395;48.132;11.608;2023-05-07T15:28:53;22.00;1.00
827;DHT22;395;48.132;11.608;2023-05-07T15:31:21;22.00;1.00
827;DHT22;395;48.132;11.608;2023-05-07T15:33:46;22.00;1.00
827;DHT22;395;48.132;11.608;2023-05-07T15:36:13;21.90;1.00
827;DHT22;395;48.132;11.608;2023-05-07T15:38:38;21.80;1.00
827;DHT22;395;48.132;11.608;2023-05-07T15:41:04;21.70;1.00
827;DHT22;395;48.132;11.608;2023-05-07T15:43:29;21.70;1.00
827;DHT22;395;48.132;11.608;2023-05-07T15:45:55;21.70;1.00
827;DHT22;395;48.132;11.608;2023-05-07T15:48:21;21.60;1.00
827;DHT22;395;48.132;11.608;2023-05-07T15:50:47;21.70;1.00
827;DHT22;395;48.132;11.608;2023-05-07T15:53:13;21.60;1.00
827;DHT22;395;48.132;11.608;2023-05-07T15:55:40;21.60;1.00
827;DHT22;395;48.132;11.608;2023-05-07T15:58:08;21.50;1.00
827;DHT22;395;48.132;11.608;2023-05-07T16:00:33;21.50;1.00
827;DHT22;395;48.132;11.608;2023-05-07T16:03:00;21.40;1.00
827;DHT22;395;48.132;11.608;2023-05-07T16:05:26;21.40;1.00
827;DHT22;395;48.132;11.608;2023-05-07T16:07:52;21.30;1.00
827;DHT22;395;48.132;11.608;2023-05-07T16:10:18;21.30;1.00
827;DHT22;395;48.132;11.608;2023-05-07T16:12:44;21.30;1.00
827;DHT22;395;48.132;11.608;2023-05-07T16:15:10;21.30;1.00
827;DHT22;395;48.132;11.608;2023-05-07T16:17:36;21.30;1.00
827;DHT22;395;48.132;11.608;2023-05-07T16:20:03;21.20;1.00
827;DHT22;395;48.132;11.608;2023-05-07T16:22:31;21.20;1.00
827;DHT22;395;48.132;11.608;2023-05-07T16:24:57;21.20;1.00
827;DHT22;395;48.132;11.608;2023-05-07T16:27:23;21.20;1.00
827;DHT22;395;48.132;11.608;2023-05-07T16:29:48;21.20;1.00
827;DHT22;395;48.132;11.608;2023-05-07T16:32:14;21.20;1.00
827;DHT22;395;48.132;11.608;2023-05-07T16:34:39;21.20;1.00
827;DHT22;395;48.132;11.608;2023-05-07T16:37:05;21.10;1.00
827;DHT22;395;48.132;11.608;2023-05-07T16:39:32;21.10;1.00
827;DHT22;395;48.132;11.608;2023-05-07T16:41:58;21.10;1.00
827;DHT22;395;48.132;11.608;2023-05-07T16:44:23;21.10;1.00
827;DHT22;395;48.132;11.608;2023-05-07T16:46:49;21.10;1.00